sensor_id;sensor_type;location;lat;lon;timestamp;P1;durP1;ratioP1;P2;durP2;ratioP2
8365;SDS011;4220;42.502;24.188;2023-03-20T00:00:40;25.20;;;20.67;;
8365;SDS011;4220;42.502;24.188;2023-03-20T00:03:09;20.43;;;14.40;;
8365;SDS011;4220;42.502;24.188;2023-03-20T00:05:37;12.60;;;7.60;;
8365;SDS011;4220;42.502;24.188;2023-03-20T00:08:05;10.13;;;6.47;;
8365;SDS011;4220;42.502;24.188;2023-03-20T00:10:34;9.47;;;7.70;;
8365;SDS011;4220;42.502;24.188;2023-03-20T00:13:04;8.97;;;7.10;;
8365;SDS011;4220;42.502;24.188;2023-03-20T00:15:32;12.63;;;8.40;;
8365;SDS011;4220;42.502;24.188;2023-03-20T00:18:02;10.73;;;8.63;;
8365;SDS011;4220;42.502;24.188;2023-03-20T00:20:29;9.83;;;7.50;;
8365;SDS011;4220;42.502;24.188;2023-03-20T00:22:56;6.53;;;5.60;;
8365;SDS011;4220;42.502;24.188;2023-03-20T00:25:24;9.83;;;6.23;;
8365;SDS011;4220;42.502;24.188;2023-03-20T00:27:52;10.27;;;6.53;;
8365;SDS011;4220;42.502;24.188;2023-03-20T00:30:23;11.13;;;7.73;;
8365;SDS011;4220;42.502;24.188;2023-03-20T00:32:54;10.67;;;7.73;;
8365;SDS011;4220;42.502;24.188;2023-03-20T00:35:23;12.63;;;7.50;;
8365;SDS011;4220;42.502;24.188;2023-03-20T00:37:52;17.43;;;11.20;;
8365;SDS011;4220;42.502;24.188;2023-03-20T00:40:20;18.67;;;10.23;;
8365;SDS011;4220;42.502;24.188;2023-03-20T00:42:50;17.13;;;9.67;;
8365;SDS011;4220;42.502;24.188;2023-03-20T00:45:22;14.87;;;8.73;;
8365;SDS011;4220;42.502;24.188;2023-03-20T00:47:49;6.33;;;4.70;;
8365;SDS011;4220;42.502;24.188;2023-03-20T00:50:18;8.23;;;5.57;;
8365;SDS011;4220;42.502;24.188;2023-03-20T00:52:46;9.17;;;6.50;;
8365;SDS011;4220;42.502;24.188;2023-03-20T00:55:13;6.63;;;5.73;;
8365;SDS011;4220;42.502;24.188;2023-03-20T00:57:42;12.47;;;6.63;;
8365;SDS011;4220;42.502;24.188;2023-03-20T01:03:09;10.53;;;7.33;;
8365;SDS011;4220;42.502;24.188;2023-03-20T01:05:38;12.03;;;7.87;;
8365;SDS011;4220;42.502;24.188;2023-03-20T01:08:08;11.93;;;8.77;;
8365;SDS011;4220;42.502;24.188;2023-03-20T01:10:38;13.00;;;9.53;;
8365;SDS011;4220;42.502;24.188;2023-03-20T01:13:08;11.70;;;8.63;;
8365;SDS011;4220;42.502;24.188;2023-03-20T01:15:44;15.03;;;11.53;;
8365;SDS011;4220;42.502;24.188;2023-03-20T01:18:11;13.37;;;9.30;;
8365;SDS011;4220;42.502;24.188;2023-03-20T01:20:39;12.93;;;9.63;;
8365;SDS011;4220;42.502;24.188;2023-03-20T01:23:06;11.60;;;7.30;;
8365;SDS011;4220;42.502;24.188;2023-03-20T01:25:33;7.67;;;5.37;;
8365;SDS011;4220;42.502;24.188;2023-03-20T01:28:00;5.63;;;4.30;;
8365;SDS011;4220;42.502;24.188;2023-03-20T01:30:29;7.87;;;4.13;;
8365;SDS011;4220;42.502;24.188;2023-03-20T01:32:59;5.40;;;4.03;;
8365;SDS011;4220;42.502;24.188;2023-03-20T01:35:29;4.53;;;3.07;;
8365;SDS011;4220;42.502;24.188;2023-03-20T01:37:56;5.37;;;3.30;;
8365;SDS011;4220;42.502;24.188;2023-03-20T01:40:27;4.03;;;3.57;;
8365;SDS011;4220;42.502;24.188;2023-03-20T01:42:58;5.47;;;4.53;;
8365;SDS011;4220;42.502;24.188;2023-03-20T01:45:28;9.00;;;5.67;;
8365;SDS011;4220;42.502;24.188;2023-03-20T01:48:00;7.33;;;5.00;;
8365;SDS011;4220;42.502;24.188;2023-03-20T01:50:37;7.13;;;5.10;;
8365;SDS011;4220;42.502;24.188;2023-03-20T01:53:06;7.50;;;4.93;;
8365;SDS011;4220;42.502;24.188;2023-03-20T01:55:35;7.73;;;5.60;;
8365;SDS011;4220;42.502;24.188;2023-03-20T01:58:06;8.20;;;5.30;;
8365;SDS011;4220;42.502;24.188;2023-03-20T02:00:38;7.73;;;5.60;;
8365;SDS011;4220;42.502;24.188;2023-03-20T02:03:07;6.57;;;4.37;;
8365;SDS011;4220;42.502;24.188;2023-03-20T02:05:34;6.13;;;4.67;;
8365;SDS011;4220;42.502;24.188;2023-03-20T02:08:09;9.27;;;5.93;;
8365;SDS011;4220;42.502;24.188;2023-03-20T02:10:43;9.40;;;7.90;;
8365;SDS011;4220;42.502;24.188;2023-03-20T02:13:11;10.83;;;6.33;;
8365;SDS011;4220;42.502;24.188;2023-03-20T02:15:54;7.73;;;5.50;;
8365;SDS011;4220;42.502;24.188;2023-03-20T02:18:28;8.43;;;5.30;;
8365;SDS011;4220;42.502;24.188;2023-03-20T02:21:06;7.97;;;5.40;;
8365;SDS011;4220;42.502;24.188;2023-03-20T02:27:05;7.80;;;5.67;;
8365;SDS011;4220;42.502;24.188;2023-03-20T02:29:49;7.20;;;5.33;;
8365;SDS011;4220;42.502;24.188;2023-03-20T02:32:47;7.33;;;4.73;;
8365;SDS011;4220;42.502;24.188;2023-03-20T02:38:57;19.73;;;11.67;;
8365;SDS011;4220;42.502;24.188;2023-03-20T02:41:40;14.63;;;8.57;;
8365;SDS011;4220;42.502;24.188;2023-03-20T02:44:15;11.47;;;6.90;;
8365;SDS011;4220;42.502;24.188;2023-03-20T02:46:49;22.47;;;11.47;;
8365;SDS011;4220;42.502;24.188;2023-03-20T02:49:24;21.90;;;12.27;;
8365;SDS011;4220;42.502;24.188;2023-03-20T02:52:03;19.60;;;10.60;;
8365;SDS011;4220;42.502;24.188;2023-03-20T02:54:38;29.87;;;17.93;;
8365;SDS011;4220;42.502;24.188;2023-03-20T02:57:10;47.03;;;22.70;;
8365;SDS011;4220;42.502;24.188;2023-03-20T02:59:46;20.87;;;14.13;;
8365;SDS011;4220;42.502;24.188;2023-03-20T03:02:21;24.63;;;16.20;;
8365;SDS011;4220;42.502;24.188;2023-03-20T03:04:54;27.87;;;18.60;;
8365;SDS011;4220;42.502;24.188;2023-03-20T03:07:26;46.13;;;27.43;;
8365;SDS011;4220;42.502;24.188;2023-03-20T03:09:58;36.23;;;21.37;;
8365;SDS011;4220;42.502;24.188;2023-03-20T03:12:29;20.57;;;15.57;;
8365;SDS011;4220;42.502;24.188;2023-03-20T03:15:02;20.10;;;12.67;;
8365;SDS011;4220;42.502;24.188;2023-03-20T03:17:33;13.47;;;9.70;;
8365;SDS011;4220;42.502;24.188;2023-03-20T03:20:04;12.93;;;8.77;;
8365;SDS011;4220;42.502;24.188;2023-03-20T03:22:35;15.73;;;9.83;;
8365;SDS011;4220;42.502;24.188;2023-03-20T03:25:04;10.03;;;6.80;;
8365;SDS011;4220;42.502;24.188;2023-03-20T03:27:33;8.40;;;6.20;;
8365;SDS011;4220;42.502;24.188;2023-03-20T03:30:04;8.60;;;6.70;;
8365;SDS011;4220;42.502;24.188;2023-03-20T03:32:37;25.43;;;13.60;;
8365;SDS011;4220;42.502;24.188;2023-03-20T03:35:12;16.27;;;10.37;;
8365;SDS011;4220;42.502;24.188;2023-03-20T03:37:43;14.90;;;8.23;;
8365;SDS011;4220;42.502;24.188;2023-03-20T03:40:21;11.67;;;7.80;;
8365;SDS011;4220;42.502;24.188;2023-03-20T03:42:58;15.83;;;9.20;;
8365;SDS011;4220;42.502;24.188;2023-03-20T03:45:30;14.23;;;9.20;;
8365;SDS011;4220;42.502;24.188;2023-03-20T03:48:02;10.60;;;7.57;;
8365;SDS011;4220;42.502;24.188;2023-03-20T03:50:36;18.60;;;12.87;;
8365;SDS011;4220;42.502;24.188;2023-03-20T03:53:12;13.93;;;10.43;;
8365;SDS011;4220;42.502;24.188;2023-03-20T03:55:43;8.47;;;6.63;;
8365;SDS011;4220;42.502;24.188;2023-03-20T03:58:14;12.10;;;9.47;;
8365;SDS011;4220;42.502;24.188;2023-03-20T04:00:45;12.93;;;9.60;;
8365;SDS011;4220;42.502;24.188;2023-03-20T04:03:16;9.80;;;7.13;;
8365;SDS011;4220;42.502;24.188;2023-03-20T04:05:47;9.03;;;6.60;;
8365;SDS011;4220;42.502;24.188;2023-03-20T04:08:17;8.97;;;6.03;;
8365;SDS011;4220;42.502;24.188;2023-03-20T04:10:45;8.97;;;7.17;;
8365;SDS011;4220;42.502;24.188;2023-03-20T04:13:12;14.77;;;11.10;;
8365;SDS011;4220;42.502;24.188;2023-03-20T04:15:40;15.80;;;11.13;;
8365;SDS011;4220;42.502;24.188;2023-03-20T04:18:07;15.53;;;11.27;;
8365;SDS011;4220;42.502;24.188;2023-03-20T04:20:40;18.43;;;11.60;;
8365;SDS011;4220;42.502;24.188;2023-03-20T04:23:07;16.00;;;10.00;;
8365;SDS011;4220;42.502;24.188;2023-03-20T04:25:34;7.67;;;5.20;;
8365;SDS011;4220;42.502;24.188;2023-03-20T04:28:02;11.70;;;6.87;;
8365;SDS011;4220;42.502;24.188;2023-03-20T04:30:29;12.80;;;8.53;;
8365;SDS011;4220;42.502;24.188;2023-03-20T04:32:56;13.17;;;8.17;;
8365;SDS011;4220;42.502;24.188;2023-03-20T04:35:23;21.17;;;18.27;;
8365;SDS011;4220;42.502;24.188;2023-03-20T04:37:50;19.93;;;15.53;;
8365;SDS011;4220;42.502;24.188;2023-03-20T04:40:17;16.67;;;12.00;;
8365;SDS011;4220;42.502;24.188;2023-03-20T04:42:44;13.67;;;9.03;;
8365;SDS011;4220;42.502;24.188;2023-03-20T04:45:12;15.07;;;10.27;;
8365;SDS011;4220;42.502;24.188;2023-03-20T04:47:39;13.53;;;9.73;;
8365;SDS011;4220;42.502;24.188;2023-03-20T04:50:06;79.60;;;49.43;;
8365;SDS011;4220;42.502;24.188;2023-03-20T04:52:33;218.40;;;115.53;;
8365;SDS011;4220;42.502;24.188;2023-03-20T04:55:00;102.07;;;59.47;;
8365;SDS011;4220;42.502;24.188;2023-03-20T04:57:27;30.07;;;21.50;;
8365;SDS011;4220;42.502;24.188;2023-03-20T04:59:56;26.10;;;17.00;;
8365;SDS011;4220;42.502;24.188;2023-03-20T05:02:24;27.00;;;18.23;;
8365;SDS011;4220;42.502;24.188;2023-03-20T05:04:51;44.80;;;29.50;;
8365;SDS011;4220;42.502;24.188;2023-03-20T05:07:18;29.13;;;18.13;;
8365;SDS011;4220;42.502;24.188;2023-03-20T05:09:45;187.27;;;108.77;;
8365;SDS011;4220;42.502;24.188;2023-03-20T05:12:12;136.90;;;76.60;;
8365;SDS011;4220;42.502;24.188;2023-03-20T05:14:39;241.87;;;118.70;;
8365;SDS011;4220;42.502;24.188;2023-03-20T05:17:06;294.90;;;169.87;;
8365;SDS011;4220;42.502;24.188;2023-03-20T05:19:34;279.87;;;189.43;;
8365;SDS011;4220;42.502;24.188;2023-03-20T05:22:01;85.47;;;64.07;;
8365;SDS011;4220;42.502;24.188;2023-03-20T05:24:27;51.27;;;42.80;;
8365;SDS011;4220;42.502;24.188;2023-03-20T05:26:55;43.37;;;34.43;;
8365;SDS011;4220;42.502;24.188;2023-03-20T05:29:22;42.97;;;29.73;;
8365;SDS011;4220;42.502;24.188;2023-03-20T05:31:49;37.23;;;26.57;;
8365;SDS011;4220;42.502;24.188;2023-03-20T05:34:16;33.30;;;23.47;;
8365;SDS011;4220;42.502;24.188;2023-03-20T05:36:44;32.80;;;22.57;;
8365;SDS011;4220;42.502;24.188;2023-03-20T05:39:11;36.50;;;23.77;;
8365;SDS011;4220;42.502;24.188;2023-03-20T05:41:37;33.77;;;24.13;;
8365;SDS011;4220;42.502;24.188;2023-03-20T05:44:05;40.57;;;29.67;;
8365;SDS011;4220;42.502;24.188;2023-03-20T05:46:31;38.60;;;29.37;;
8365;SDS011;4220;42.502;24.188;2023-03-20T05:48:58;45.27;;;29.93;;
8365;SDS011;4220;42.502;24.188;2023-03-20T05:51:25;50.67;;;32.43;;
8365;SDS011;4220;42.502;24.188;2023-03-20T05:53:53;43.30;;;31.40;;
8365;SDS011;4220;42.502;24.188;2023-03-20T05:56:20;41.77;;;29.10;;
8365;SDS011;4220;42.502;24.188;2023-03-20T05:58:47;41.73;;;29.63;;
8365;SDS011;4220;42.502;24.188;2023-03-20T06:01:16;46.90;;;28.37;;
8365;SDS011;4220;42.502;24.188;2023-03-20T06:03:45;44.23;;;29.43;;
8365;SDS011;4220;42.502;24.188;2023-03-20T06:06:12;36.20;;;27.00;;
8365;SDS011;4220;42.502;24.188;2023-03-20T06:08:39;37.03;;;27.47;;
8365;SDS011;4220;42.502;24.188;2023-03-20T06:11:08;34.63;;;25.60;;
8365;SDS011;4220;42.502;24.188;2023-03-20T06:13:35;37.60;;;26.83;;
8365;SDS011;4220;42.502;24.188;2023-03-20T06:16:03;32.27;;;24.90;;
8365;SDS011;4220;42.502;24.188;2023-03-20T06:18:30;34.23;;;23.77;;
8365;SDS011;4220;42.502;24.188;2023-03-20T06:20:57;37.57;;;24.03;;
8365;SDS011;4220;42.502;24.188;2023-03-20T06:23:24;39.33;;;27.57;;
8365;SDS011;4220;42.502;24.188;2023-03-20T06:25:51;47.83;;;30.77;;
8365;SDS011;4220;42.502;24.188;2023-03-20T06:28:19;43.27;;;28.70;;
8365;SDS011;4220;42.502;24.188;2023-03-20T06:30:46;47.93;;;32.03;;
8365;SDS011;4220;42.502;24.188;2023-03-20T06:33:13;49.43;;;35.17;;
8365;SDS011;4220;42.502;24.188;2023-03-20T06:35:39;50.20;;;34.00;;
8365;SDS011;4220;42.502;24.188;2023-03-20T06:38:06;40.53;;;29.60;;
8365;SDS011;4220;42.502;24.188;2023-03-20T06:40:33;33.70;;;26.50;;
8365;SDS011;4220;42.502;24.188;2023-03-20T06:43:00;41.70;;;29.33;;
8365;SDS011;4220;42.502;24.188;2023-03-20T06:45:28;34.27;;;27.00;;
8365;SDS011;4220;42.502;24.188;2023-03-20T06:47:55;35.23;;;26.60;;
8365;SDS011;4220;42.502;24.188;2023-03-20T06:50:22;32.83;;;25.40;;
8365;SDS011;4220;42.502;24.188;2023-03-20T06:52:49;37.83;;;28.13;;
8365;SDS011;4220;42.502;24.188;2023-03-20T06:55:16;41.97;;;28.80;;
8365;SDS011;4220;42.502;24.188;2023-03-20T06:57:43;47.60;;;34.47;;
8365;SDS011;4220;42.502;24.188;2023-03-20T07:00:10;62.13;;;43.33;;
8365;SDS011;4220;42.502;24.188;2023-03-20T07:02:39;67.30;;;45.13;;
8365;SDS011;4220;42.502;24.188;2023-03-20T07:05:07;57.17;;;41.67;;
8365;SDS011;4220;42.502;24.188;2023-03-20T07:07:34;59.73;;;44.50;;
8365;SDS011;4220;42.502;24.188;2023-03-20T07:10:01;57.87;;;43.73;;
8365;SDS011;4220;42.502;24.188;2023-03-20T07:12:29;51.47;;;39.33;;
8365;SDS011;4220;42.502;24.188;2023-03-20T07:14:55;51.73;;;39.07;;
8365;SDS011;4220;42.502;24.188;2023-03-20T07:17:22;42.63;;;31.43;;
8365;SDS011;4220;42.502;24.188;2023-03-20T07:19:50;37.47;;;26.07;;
8365;SDS011;4220;42.502;24.188;2023-03-20T07:22:19;36.33;;;25.83;;
8365;SDS011;4220;42.502;24.188;2023-03-20T07:24:48;31.30;;;18.63;;
8365;SDS011;4220;42.502;24.188;2023-03-20T07:27:14;30.27;;;21.53;;
8365;SDS011;4220;42.502;24.188;2023-03-20T07:29:42;35.07;;;21.43;;
8365;SDS011;4220;42.502;24.188;2023-03-20T07:32:08;34.63;;;23.30;;
8365;SDS011;4220;42.502;24.188;2023-03-20T07:34:35;39.27;;;24.43;;
8365;SDS011;4220;42.502;24.188;2023-03-20T07:37:03;25.80;;;19.35;;
8365;SDS011;4220;42.502;24.188;2023-03-20T07:39:31;23.42;;;18.33;;
8365;SDS011;4220;42.502;24.188;2023-03-20T07:41:58;15.82;;;12.70;;
8365;SDS011;4220;42.502;24.188;2023-03-20T07:44:24;12.75;;;10.02;;
8365;SDS011;4220;42.502;24.188;2023-03-20T07:46:51;10.68;;;8.75;;
8365;SDS011;4220;42.502;24.188;2023-03-20T07:49:18;12.02;;;9.75;;
8365;SDS011;4220;42.502;24.188;2023-03-20T07:51:45;16.17;;;10.38;;
8365;SDS011;4220;42.502;24.188;2023-03-20T07:54:14;17.13;;;10.02;;
8365;SDS011;4220;42.502;24.188;2023-03-20T07:56:42;16.42;;;9.43;;
8365;SDS011;4220;42.502;24.188;2023-03-20T07:59:09;11.07;;;8.35;;
8365;SDS011;4220;42.502;24.188;2023-03-20T08:01:37;13.40;;;9.45;;
8365;SDS011;4220;42.502;24.188;2023-03-20T08:04:03;19.45;;;11.13;;
8365;SDS011;4220;42.502;24.188;2023-03-20T08:06:30;16.50;;;11.10;;
8365;SDS011;4220;42.502;24.188;2023-03-20T08:08:57;14.82;;;8.93;;
8365;SDS011;4220;42.502;24.188;2023-03-20T08:11:25;12.63;;;8.63;;
8365;SDS011;4220;42.502;24.188;2023-03-20T08:13:52;12.68;;;6.72;;
8365;SDS011;4220;42.502;24.188;2023-03-20T08:16:19;10.55;;;7.63;;
8365;SDS011;4220;42.502;24.188;2023-03-20T08:18:46;7.40;;;6.45;;
8365;SDS011;4220;42.502;24.188;2023-03-20T08:21:14;7.25;;;5.93;;
8365;SDS011;4220;42.502;24.188;2023-03-20T08:23:41;10.02;;;6.68;;
8365;SDS011;4220;42.502;24.188;2023-03-20T08:26:08;10.25;;;7.03;;
8365;SDS011;4220;42.502;24.188;2023-03-20T08:28:36;11.07;;;7.55;;
8365;SDS011;4220;42.502;24.188;2023-03-20T08:31:06;12.80;;;7.03;;
8365;SDS011;4220;42.502;24.188;2023-03-20T08:33:33;8.77;;;7.30;;
8365;SDS011;4220;42.502;24.188;2023-03-20T08:36:00;9.40;;;6.50;;
8365;SDS011;4220;42.502;24.188;2023-03-20T08:38:27;9.15;;;5.10;;
8365;SDS011;4220;42.502;24.188;2023-03-20T08:40:53;7.75;;;5.75;;
8365;SDS011;4220;42.502;24.188;2023-03-20T08:43:20;8.07;;;4.65;;
8365;SDS011;4220;42.502;24.188;2023-03-20T08:45:49;10.25;;;5.40;;
8365;SDS011;4220;42.502;24.188;2023-03-20T08:48:15;9.63;;;5.10;;
8365;SDS011;4220;42.502;24.188;2023-03-20T08:50:42;5.47;;;4.25;;
8365;SDS011;4220;42.502;24.188;2023-03-20T08:53:09;7.40;;;4.80;;
8365;SDS011;4220;42.502;24.188;2023-03-20T08:55:36;6.13;;;4.32;;
8365;SDS011;4220;42.502;24.188;2023-03-20T08:58:03;6.35;;;5.00;;
8365;SDS011;4220;42.502;24.188;2023-03-20T09:00:30;6.43;;;5.15;;
8365;SDS011;4220;42.502;24.188;2023-03-20T09:02:58;10.40;;;7.25;;
8365;SDS011;4220;42.502;24.188;2023-03-20T09:05:25;4.85;;;3.72;;
8365;SDS011;4220;42.502;24.188;2023-03-20T09:07:52;3.97;;;3.00;;
8365;SDS011;4220;42.502;24.188;2023-03-20T09:10:19;5.88;;;4.40;;
8365;SDS011;4220;42.502;24.188;2023-03-20T09:12:46;3.00;;;2.63;;
8365;SDS011;4220;42.502;24.188;2023-03-20T09:15:12;7.70;;;3.13;;
8365;SDS011;4220;42.502;24.188;2023-03-20T09:17:39;6.65;;;4.28;;
8365;SDS011;4220;42.502;24.188;2023-03-20T09:20:08;4.95;;;3.13;;
8365;SDS011;4220;42.502;24.188;2023-03-20T09:22:35;3.15;;;2.85;;
8365;SDS011;4220;42.502;24.188;2023-03-20T09:25:05;3.15;;;2.85;;
8365;SDS011;4220;42.502;24.188;2023-03-20T09:27:32;3.33;;;2.83;;
8365;SDS011;4220;42.502;24.188;2023-03-20T09:30:00;5.18;;;2.80;;
8365;SDS011;4220;42.502;24.188;2023-03-20T09:32:27;5.88;;;3.67;;
8365;SDS011;4220;42.502;24.188;2023-03-20T09:34:53;4.15;;;2.80;;
8365;SDS011;4220;42.502;24.188;2023-03-20T09:37:22;3.40;;;2.58;;
8365;SDS011;4220;42.502;24.188;2023-03-20T09:39:48;5.13;;;2.85;;
8365;SDS011;4220;42.502;24.188;2023-03-20T09:42:18;3.55;;;2.83;;
8365;SDS011;4220;42.502;24.188;2023-03-20T09:44:56;4.85;;;2.55;;
8365;SDS011;4220;42.502;24.188;2023-03-20T09:47:31;3.70;;;3.13;;
8365;SDS011;4220;42.502;24.188;2023-03-20T09:50:07;8.07;;;4.75;;
8365;SDS011;4220;42.502;24.188;2023-03-20T09:52:49;3.88;;;2.88;;
8365;SDS011;4220;42.502;24.188;2023-03-20T09:55:24;4.13;;;2.70;;
8365;SDS011;4220;42.502;24.188;2023-03-20T09:57:57;5.63;;;4.47;;
8365;SDS011;4220;42.502;24.188;2023-03-20T10:00:33;3.92;;;2.88;;
8365;SDS011;4220;42.502;24.188;2023-03-20T10:03:01;4.53;;;2.80;;
8365;SDS011;4220;42.502;24.188;2023-03-20T10:05:30;5.07;;;3.17;;
8365;SDS011;4220;42.502;24.188;2023-03-20T10:08:03;3.75;;;2.83;;
8365;SDS011;4220;42.502;24.188;2023-03-20T10:10:36;3.70;;;3.00;;
8365;SDS011;4220;42.502;24.188;2023-03-20T10:13:17;4.53;;;3.20;;
8365;SDS011;4220;42.502;24.188;2023-03-20T10:16:01;3.25;;;2.78;;
8365;SDS011;4220;42.502;24.188;2023-03-20T10:18:36;5.90;;;3.65;;
8365;SDS011;4220;42.502;24.188;2023-03-20T10:21:09;4.10;;;3.08;;
8365;SDS011;4220;42.502;24.188;2023-03-20T10:23:45;4.68;;;2.45;;
8365;SDS011;4220;42.502;24.188;2023-03-20T10:26:19;5.32;;;3.05;;
8365;SDS011;4220;42.502;24.188;2023-03-20T10:28:50;4.82;;;2.58;;
8365;SDS011;4220;42.502;24.188;2023-03-20T10:31:25;4.22;;;2.63;;
8365;SDS011;4220;42.502;24.188;2023-03-20T10:34:06;6.30;;;4.35;;
8365;SDS011;4220;42.502;24.188;2023-03-20T10:36:48;4.35;;;3.30;;
8365;SDS011;4220;42.502;24.188;2023-03-20T10:39:31;3.47;;;3.17;;
8365;SDS011;4220;42.502;24.188;2023-03-20T10:42:12;4.57;;;2.35;;
8365;SDS011;4220;42.502;24.188;2023-03-20T10:44:45;3.75;;;2.60;;
8365;SDS011;4220;42.502;24.188;2023-03-20T10:47:16;4.43;;;3.08;;
8365;SDS011;4220;42.502;24.188;2023-03-20T10:49:47;3.30;;;2.63;;
8365;SDS011;4220;42.502;24.188;2023-03-20T10:52:20;2.50;;;2.30;;
8365;SDS011;4220;42.502;24.188;2023-03-20T10:54:53;2.80;;;2.40;;
8365;SDS011;4220;42.502;24.188;2023-03-20T10:57:23;4.15;;;3.53;;
8365;SDS011;4220;42.502;24.188;2023-03-20T10:59:53;6.57;;;5.97;;
8365;SDS011;4220;42.502;24.188;2023-03-20T11:02:24;5.70;;;5.10;;
8365;SDS011;4220;42.502;24.188;2023-03-20T11:04:53;5.95;;;4.65;;
8365;SDS011;4220;42.502;24.188;2023-03-20T11:07:22;5.57;;;4.63;;
8365;SDS011;4220;42.502;24.188;2023-03-20T11:12:45;4.70;;;3.65;;
8365;SDS011;4220;42.502;24.188;2023-03-20T11:15:14;7.28;;;4.00;;
8365;SDS011;4220;42.502;24.188;2023-03-20T11:17:53;4.78;;;3.72;;
8365;SDS011;4220;42.502;24.188;2023-03-20T11:20:21;7.60;;;5.25;;
8365;SDS011;4220;42.502;24.188;2023-03-20T11:22:49;5.45;;;4.95;;
8365;SDS011;4220;42.502;24.188;2023-03-20T11:25:23;7.07;;;5.78;;
8365;SDS011;4220;42.502;24.188;2023-03-20T11:27:57;6.07;;;4.97;;
8365;SDS011;4220;42.502;24.188;2023-03-20T11:30:44;5.38;;;3.80;;
8365;SDS011;4220;42.502;24.188;2023-03-20T11:33:13;3.90;;;2.90;;
8365;SDS011;4220;42.502;24.188;2023-03-20T11:35:44;4.72;;;3.60;;
8365;SDS011;4220;42.502;24.188;2023-03-20T11:38:12;8.00;;;4.00;;
8365;SDS011;4220;42.502;24.188;2023-03-20T11:40:41;5.38;;;4.40;;
8365;SDS011;4220;42.502;24.188;2023-03-20T11:43:11;6.20;;;3.67;;
8365;SDS011;4220;42.502;24.188;2023-03-20T11:45:39;5.30;;;3.53;;
8365;SDS011;4220;42.502;24.188;2023-03-20T11:48:13;5.60;;;4.47;;
8365;SDS011;4220;42.502;24.188;2023-03-20T11:50:45;5.07;;;4.18;;
8365;SDS011;4220;42.502;24.188;2023-03-20T11:53:24;5.07;;;3.38;;
8365;SDS011;4220;42.502;24.188;2023-03-20T11:56:02;5.35;;;4.32;;
8365;SDS011;4220;42.502;24.188;2023-03-20T11:58:33;3.83;;;3.00;;
8365;SDS011;4220;42.502;24.188;2023-03-20T12:01:03;4.20;;;3.80;;
8365;SDS011;4220;42.502;24.188;2023-03-20T12:03:35;4.90;;;3.90;;
8365;SDS011;4220;42.502;24.188;2023-03-20T12:06:06;4.88;;;4.38;;
8365;SDS011;4220;42.502;24.188;2023-03-20T12:08:38;10.52;;;7.22;;
8365;SDS011;4220;42.502;24.188;2023-03-20T12:11:12;16.63;;;11.88;;
8365;SDS011;4220;42.502;24.188;2023-03-20T12:13:52;13.55;;;10.45;;
8365;SDS011;4220;42.502;24.188;2023-03-20T12:16:21;11.80;;;10.63;;
8365;SDS011;4220;42.502;24.188;2023-03-20T12:18:52;12.80;;;9.70;;
8365;SDS011;4220;42.502;24.188;2023-03-20T12:21:22;6.32;;;5.32;;
8365;SDS011;4220;42.502;24.188;2023-03-20T12:23:57;10.30;;;6.82;;
8365;SDS011;4220;42.502;24.188;2023-03-20T12:26:27;16.98;;;9.40;;
8365;SDS011;4220;42.502;24.188;2023-03-20T12:29:04;5.90;;;4.57;;
8365;SDS011;4220;42.502;24.188;2023-03-20T12:31:38;9.23;;;7.25;;
8365;SDS011;4220;42.502;24.188;2023-03-20T12:34:11;19.13;;;14.68;;
8365;SDS011;4220;42.502;24.188;2023-03-20T12:36:41;30.13;;;26.85;;
8365;SDS011;4220;42.502;24.188;2023-03-20T12:39:11;18.77;;;16.88;;
8365;SDS011;4220;42.502;24.188;2023-03-20T12:41:43;8.32;;;7.13;;
8365;SDS011;4220;42.502;24.188;2023-03-20T12:44:26;6.57;;;4.57;;
8365;SDS011;4220;42.502;24.188;2023-03-20T12:47:02;5.40;;;3.92;;
8365;SDS011;4220;42.502;24.188;2023-03-20T12:49:42;26.60;;;19.70;;
8365;SDS011;4220;42.502;24.188;2023-03-20T12:52:19;88.45;;;73.65;;
8365;SDS011;4220;42.502;24.188;2023-03-20T12:55:00;7.10;;;6.07;;
8365;SDS011;4220;42.502;24.188;2023-03-20T12:57:38;5.78;;;5.18;;
8365;SDS011;4220;42.502;24.188;2023-03-20T13:00:19;5.85;;;4.80;;
8365;SDS011;4220;42.502;24.188;2023-03-20T13:02:56;4.60;;;4.18;;
8365;SDS011;4220;42.502;24.188;2023-03-20T13:05:34;4.07;;;3.60;;
8365;SDS011;4220;42.502;24.188;2023-03-20T13:08:17;5.38;;;4.47;;
8365;SDS011;4220;42.502;24.188;2023-03-20T13:11:04;5.05;;;4.45;;
8365;SDS011;4220;42.502;24.188;2023-03-20T13:13:40;16.92;;;5.50;;
8365;SDS011;4220;42.502;24.188;2023-03-20T13:16:15;7.35;;;4.80;;
8365;SDS011;4220;42.502;24.188;2023-03-20T13:18:52;5.88;;;5.28;;
8365;SDS011;4220;42.502;24.188;2023-03-20T13:21:27;7.35;;;6.43;;
8365;SDS011;4220;42.502;24.188;2023-03-20T13:24:01;5.70;;;5.10;;
8365;SDS011;4220;42.502;24.188;2023-03-20T13:26:44;7.68;;;7.07;;
8365;SDS011;4220;42.502;24.188;2023-03-20T13:29:17;9.73;;;6.70;;
8365;SDS011;4220;42.502;24.188;2023-03-20T13:31:58;8.18;;;5.93;;
8365;SDS011;4220;42.502;24.188;2023-03-20T13:34:41;5.80;;;5.18;;
8365;SDS011;4220;42.502;24.188;2023-03-20T13:37:26;6.70;;;5.65;;
8365;SDS011;4220;42.502;24.188;2023-03-20T13:40:02;7.78;;;5.35;;
8365;SDS011;4220;42.502;24.188;2023-03-20T13:42:33;6.75;;;5.25;;
8365;SDS011;4220;42.502;24.188;2023-03-20T13:45:04;7.50;;;5.93;;
8365;SDS011;4220;42.502;24.188;2023-03-20T13:47:44;6.93;;;5.85;;
8365;SDS011;4220;42.502;24.188;2023-03-20T13:50:20;5.95;;;5.35;;
8365;SDS011;4220;42.502;24.188;2023-03-20T13:53:02;10.90;;;7.22;;
8365;SDS011;4220;42.502;24.188;2023-03-20T13:55:40;7.18;;;6.07;;
8365;SDS011;4220;42.502;24.188;2023-03-20T13:58:22;5.78;;;5.20;;
8365;SDS011;4220;42.502;24.188;2023-03-20T14:01:16;6.93;;;5.13;;
8365;SDS011;4220;42.502;24.188;2023-03-20T14:03:50;8.27;;;6.55;;
8365;SDS011;4220;42.502;24.188;2023-03-20T14:11:55;8.15;;;5.20;;
8365;SDS011;4220;42.502;24.188;2023-03-20T14:14:25;7.00;;;6.00;;
8365;SDS011;4220;42.502;24.188;2023-03-20T14:19:45;6.57;;;4.97;;
8365;SDS011;4220;42.502;24.188;2023-03-20T14:22:15;6.47;;;5.38;;
8365;SDS011;4220;42.502;24.188;2023-03-20T14:24:48;7.68;;;6.18;;
8365;SDS011;4220;42.502;24.188;2023-03-20T14:27:19;5.72;;;5.22;;
8365;SDS011;4220;42.502;24.188;2023-03-20T14:29:49;9.68;;;5.88;;
8365;SDS011;4220;42.502;24.188;2023-03-20T14:32:30;8.30;;;5.93;;
8365;SDS011;4220;42.502;24.188;2023-03-20T14:35:21;6.82;;;6.07;;
8365;SDS011;4220;42.502;24.188;2023-03-20T14:40:51;7.43;;;6.63;;
8365;SDS011;4220;42.502;24.188;2023-03-20T14:43:29;9.65;;;5.15;;
8365;SDS011;4220;42.502;24.188;2023-03-20T14:46:07;9.88;;;6.30;;
8365;SDS011;4220;42.502;24.188;2023-03-20T14:48:46;9.43;;;6.68;;
8365;SDS011;4220;42.502;24.188;2023-03-20T14:51:19;6.95;;;5.80;;
8365;SDS011;4220;42.502;24.188;2023-03-20T14:53:54;79.78;;;70.85;;
8365;SDS011;4220;42.502;24.188;2023-03-20T14:56:26;40.92;;;32.85;;
8365;SDS011;4220;42.502;24.188;2023-03-20T14:58:56;23.80;;;20.30;;
8365;SDS011;4220;42.502;24.188;2023-03-20T15:01:33;11.55;;;8.77;;
8365;SDS011;4220;42.502;24.188;2023-03-20T15:04:13;7.50;;;6.35;;
8365;SDS011;4220;42.502;24.188;2023-03-20T15:06:50;9.88;;;7.65;;
8365;SDS011;4220;42.502;24.188;2023-03-20T15:09:21;11.90;;;9.57;;
8365;SDS011;4220;42.502;24.188;2023-03-20T15:11:50;9.13;;;7.38;;
8365;SDS011;4220;42.502;24.188;2023-03-20T15:14:19;9.77;;;8.70;;
8365;SDS011;4220;42.502;24.188;2023-03-20T15:16:55;9.93;;;6.30;;
8365;SDS011;4220;42.502;24.188;2023-03-20T15:19:23;9.48;;;7.13;;
8365;SDS011;4220;42.502;24.188;2023-03-20T15:21:52;16.48;;;14.57;;
8365;SDS011;4220;42.502;24.188;2023-03-20T15:24:20;12.43;;;10.48;;
8365;SDS011;4220;42.502;24.188;2023-03-20T15:26:50;12.77;;;9.63;;
8365;SDS011;4220;42.502;24.188;2023-03-20T15:29:19;13.18;;;7.85;;
8365;SDS011;4220;42.502;24.188;2023-03-20T15:31:50;13.57;;;11.48;;
8365;SDS011;4220;42.502;24.188;2023-03-20T15:34:21;12.85;;;10.13;;
8365;SDS011;4220;42.502;24.188;2023-03-20T15:36:52;12.98;;;10.68;;